sensor_id;sensor_type;location;lat;lon;timestamp;pressure;altitude;pressure_sealevel;temperature;humidity
67803;BME280;72185;51.378;-1.342;2024-03-23T00:53:17;100216.57;;;17.27;33.96
67803;BME280;72185;51.378;-1.342;2024-03-23T00:55:42;100220.07;;;17.37;33.88
67803;BME280;72185;51.378;-1.342;2024-03-23T00:58:08;100219.13;;;17.20;33.96
67803;BME280;72185;51.378;-1.342;2024-03-23T01:00:33;100215.89;;;17.49;33.99
67803;BME280;72185;51.378;-1.342;2024-03-23T01:02:59;100214.77;;;17.46;33.71
67803;BME280;72185;51.378;-1.342;2024-03-23T01:05:25;100212.88;;;17.31;33.82
67803;BME280;72185;51.378;-1.342;2024-03-23T01:07:50;100212.49;;;17.40;33.77
67803;BME280;72185;51.378;-1.342;2024-03-23T01:10:16;100209.81;;;17.11;34.22
67803;BME280;72185;51.378;-1.342;2024-03-23T01:12:41;100211.45;;;17.27;34.08
67803;BME280;72185;51.378;-1.342;2024-03-23T01:15:08;100211.49;;;17.63;33.71
67803;BME280;72185;51.378;-1.342;2024-03-23T01:17:32;100208.97;;;17.29;33.73
67803;BME280;72185;51.378;-1.342;2024-03-23T01:19:58;100209.80;;;17.53;33.90
67803;BME280;72185;51.378;-1.342;2024-03-23T01:22:24;100210.22;;;17.39;33.66
67803;BME280;72185;51.378;-1.342;2024-03-23T01:24:49;100207.73;;;17.36;33.73
67803;BME280;72185;51.378;-1.342;2024-03-23T01:27:15;100202.90;;;17.40;33.94
67803;BME280;72185;51.378;-1.342;2024-03-23T01:29:40;100202.36;;;17.21;33.96
67803;BME280;72185;51.378;-1.342;2024-03-23T01:32:06;100200.56;;;17.44;33.87
67803;BME280;72185;51.378;-1.342;2024-03-23T01:34:31;100192.67;;;17.08;33.76
67803;BME280;72185;51.378;-1.342;2024-03-23T01:36:57;100189.74;;;17.24;33.86
67803;BME280;72185;51.378;-1.342;2024-03-23T01:39:23;100191.08;;;16.93;33.89
67803;BME280;72185;51.378;-1.342;2024-03-23T01:41:48;100186.87;;;17.10;33.95
67803;BME280;72185;51.378;-1.342;2024-03-23T01:44:14;100183.88;;;17.25;33.75
67803;BME280;72185;51.378;-1.342;2024-03-23T01:46:39;100182.56;;;17.23;33.65
67803;BME280;72185;51.378;-1.342;2024-03-23T01:49:05;100178.68;;;17.18;33.76
67803;BME280;72185;51.378;-1.342;2024-03-23T01:51:31;100176.25;;;17.12;33.74
67803;BME280;72185;51.378;-1.342;2024-03-23T01:53:56;100172.78;;;17.04;33.96
67803;BME280;72185;51.378;-1.342;2024-03-23T01:56:21;100176.92;;;17.22;33.71
67803;BME280;72185;51.378;-1.342;2024-03-23T01:58:47;100175.05;;;17.16;33.75
67803;BME280;72185;51.378;-1.342;2024-03-23T02:01:13;100181.55;;;17.04;33.70
67803;BME280;72185;51.378;-1.342;2024-03-23T02:03:38;100179.24;;;17.12;33.79
67803;BME280;72185;51.378;-1.342;2024-03-23T02:06:04;100178.92;;;17.25;33.64
67803;BME280;72185;51.378;-1.342;2024-03-23T02:08:30;100175.10;;;16.68;34.08
67803;BME280;72185;51.378;-1.342;2024-03-23T02:10:56;100167.57;;;16.65;34.26
67803;BME280;72185;51.378;-1.342;2024-03-23T02:13:21;100166.73;;;16.65;34.05
67803;BME280;72185;51.378;-1.342;2024-03-23T02:15:46;100165.24;;;16.73;34.24
67803;BME280;72185;51.378;-1.342;2024-03-23T02:18:12;100166.12;;;16.72;34.33
67803;BME280;72185;51.378;-1.342;2024-03-23T02:20:38;100163.41;;;16.75;34.54
67803;BME280;72185;51.378;-1.342;2024-03-23T02:23:03;100160.84;;;16.48;34.52
67803;BME280;72185;51.378;-1.342;2024-03-23T02:25:29;100161.63;;;16.51;34.65
67803;BME280;72185;51.378;-1.342;2024-03-23T02:27:54;100161.64;;;16.87;34.10
67803;BME280;72185;51.378;-1.342;2024-03-23T02:30:20;100158.98;;;16.50;34.67
67803;BME280;72185;51.378;-1.342;2024-03-23T02:32:45;100156.91;;;16.33;34.88
67803;BME280;72185;51.378;-1.342;2024-03-23T02:35:11;100159.24;;;16.62;34.52
67803;BME280;72185;51.378;-1.342;2024-03-23T02:37:37;100159.24;;;16.81;34.64
67803;BME280;72185;51.378;-1.342;2024-03-23T02:40:02;100155.44;;;16.73;34.40
67803;BME280;72185;51.378;-1.342;2024-03-23T02:42:28;100148.69;;;16.34;34.88
67803;BME280;72185;51.378;-1.342;2024-03-23T02:44:54;100145.05;;;16.37;34.93
67803;BME280;72185;51.378;-1.342;2024-03-23T02:47:19;100146.15;;;16.44;34.91
67803;BME280;72185;51.378;-1.342;2024-03-23T02:49:44;100147.24;;;16.23;34.79
67803;BME280;72185;51.378;-1.342;2024-03-23T02:52:10;100147.10;;;16.37;34.88
67803;BME280;72185;51.378;-1.342;2024-03-23T02:54:36;100141.30;;;15.93;35.54
67803;BME280;72185;51.378;-1.342;2024-03-23T02:57:01;100144.45;;;16.30;35.50
67803;BME280;72185;51.378;-1.342;2024-03-23T02:59:27;100143.94;;;16.16;35.15
67803;BME280;72185;51.378;-1.342;2024-03-23T03:01:52;100145.05;;;16.53;34.74
67803;BME280;72185;51.378;-1.342;2024-03-23T03:04:18;100145.17;;;16.82;34.74
67803;BME280;72185;51.378;-1.342;2024-03-23T03:06:47;100142.31;;;16.73;34.97
67803;BME280;72185;51.378;-1.342;2024-03-23T03:09:09;100142.35;;;16.34;35.49
67803;BME280;72185;51.378;-1.342;2024-03-23T03:11:35;100147.82;;;16.02;35.57
67803;BME280;72185;51.378;-1.342;2024-03-23T03:14:00;100150.32;;;16.02;35.50
67803;BME280;72185;51.378;-1.342;2024-03-23T03:16:26;100151.75;;;16.29;35.62
67803;BME280;72185;51.378;-1.342;2024-03-23T03:18:51;100145.95;;;16.02;35.58
67803;BME280;72185;51.378;-1.342;2024-03-23T03:21:17;100136.13;;;16.20;35.45
67803;BME280;72185;51.378;-1.342;2024-03-23T03:23:43;100140.70;;;16.15;35.48
67803;BME280;72185;51.378;-1.342;2024-03-23T03:26:08;100143.00;;;16.08;35.58
67803;BME280;72185;51.378;-1.342;2024-03-23T03:28:34;100139.17;;;15.99;35.69
67803;BME280;72185;51.378;-1.342;2024-03-23T03:30:59;100141.27;;;16.22;35.47
67803;BME280;72185;51.378;-1.342;2024-03-23T03:33:26;100144.05;;;16.25;35.31
67803;BME280;72185;51.378;-1.342;2024-03-23T03:35:50;100145.79;;;15.89;35.82
67803;BME280;72185;51.378;-1.342;2024-03-23T03:38:16;100150.03;;;15.89;35.79
67803;BME280;72185;51.378;-1.342;2024-03-23T03:40:42;100148.94;;;16.15;35.81
67803;BME280;72185;51.378;-1.342;2024-03-23T03:43:07;100150.03;;;16.12;35.87
67803;BME280;72185;51.378;-1.342;2024-03-23T03:45:33;100150.48;;;15.86;35.92
67803;BME280;72185;51.378;-1.342;2024-03-23T03:47:58;100148.61;;;16.18;35.83
67803;BME280;72185;51.378;-1.342;2024-03-23T03:50:24;100150.57;;;16.04;35.65
67803;BME280;72185;51.378;-1.342;2024-03-23T03:52:49;100150.75;;;16.12;35.64
67803;BME280;72185;51.378;-1.342;2024-03-23T03:55:16;100148.22;;;16.39;35.59
67803;BME280;72185;51.378;-1.342;2024-03-23T03:57:40;100139.47;;;16.51;35.41
67803;BME280;72185;51.378;-1.342;2024-03-23T04:00:07;100142.74;;;15.96;35.78
67803;BME280;72185;51.378;-1.342;2024-03-23T04:02:32;100146.38;;;16.23;35.75
67803;BME280;72185;51.378;-1.342;2024-03-23T04:04:57;100139.71;;;16.24;35.72
67803;BME280;72185;51.378;-1.342;2024-03-23T04:07:23;100140.67;;;16.34;35.22
67803;BME280;72185;51.378;-1.342;2024-03-23T04:09:48;100139.49;;;16.07;35.58
67803;BME280;72185;51.378;-1.342;2024-03-23T04:12:14;100135.91;;;16.02;35.78
67803;BME280;72185;51.378;-1.342;2024-03-23T04:14:39;100130.47;;;16.40;35.58
67803;BME280;72185;51.378;-1.342;2024-03-23T04:17:05;100127.55;;;16.19;35.50
67803;BME280;72185;51.378;-1.342;2024-03-23T04:19:31;100125.87;;;16.08;35.60
67803;BME280;72185;51.378;-1.342;2024-03-23T04:21:56;100128.52;;;15.81;35.84
67803;BME280;72185;51.378;-1.342;2024-03-23T04:24:22;100128.10;;;15.64;35.94
67803;BME280;72185;51.378;-1.342;2024-03-23T04:26:47;100129.13;;;15.85;35.86
67803;BME280;72185;51.378;-1.342;2024-03-23T04:29:13;100129.11;;;15.97;35.74
67803;BME280;72185;51.378;-1.342;2024-03-23T04:31:38;100131.93;;;16.14;35.79
67803;BME280;72185;51.378;-1.342;2024-03-23T04:34:04;100127.58;;;16.02;35.98
67803;BME280;72185;51.378;-1.342;2024-03-23T04:36:30;100124.73;;;15.78;35.88
67803;BME280;72185;51.378;-1.342;2024-03-23T04:38:56;100127.43;;;15.46;36.50
67803;BME280;72185;51.378;-1.342;2024-03-23T04:41:20;100125.12;;;15.76;36.33
67803;BME280;72185;51.378;-1.342;2024-03-23T04:43:46;100124.42;;;15.30;36.50
67803;BME280;72185;51.378;-1.342;2024-03-23T04:46:12;100122.92;;;15.61;36.42
67803;BME280;72185;51.378;-1.342;2024-03-23T04:48:37;100121.85;;;15.51;36.45
67803;BME280;72185;51.378;-1.342;2024-03-23T04:51:03;100114.27;;;15.80;36.21
67803;BME280;72185;51.378;-1.342;2024-03-23T04:53:28;100108.19;;;15.56;36.22
67803;BME280;72185;51.378;-1.342;2024-03-23T04:55:54;100101.06;;;15.88;36.13
67803;BME280;72185;51.378;-1.342;2024-03-23T04:58:19;100107.34;;;15.78;36.12
67803;BME280;72185;51.378;-1.342;2024-03-23T05:00:44;100109.49;;;15.99;35.83
67803;BME280;72185;51.378;-1.342;2024-03-23T05:03:10;100105.73;;;15.59;35.85
67803;BME280;72185;51.378;-1.342;2024-03-23T05:05:36;100101.62;;;15.84;35.68
67803;BME280;72185;51.378;-1.342;2024-03-23T05:08:01;100102.08;;;15.62;35.93
67803;BME280;72185;51.378;-1.342;2024-03-23T05:10:27;100096.67;;;16.01;35.79
67803;BME280;72185;51.378;-1.342;2024-03-23T05:12:52;100096.80;;;15.64;35.88
67803;BME280;72185;51.378;-1.342;2024-03-23T05:15:18;100094.02;;;16.08;35.78
67803;BME280;72185;51.378;-1.342;2024-03-23T05:17:43;100089.69;;;16.14;35.58
67803;BME280;72185;51.378;-1.342;2024-03-23T05:20:10;100084.86;;;15.78;35.81
67803;BME280;72185;51.378;-1.342;2024-03-23T05:22:35;100090.82;;;15.60;35.81
67803;BME280;72185;51.378;-1.342;2024-03-23T05:25:00;100090.91;;;16.08;35.29
67803;BME280;72185;51.378;-1.342;2024-03-23T05:27:26;100091.65;;;15.98;35.46
67803;BME280;72185;51.378;-1.342;2024-03-23T05:29:51;100083.77;;;15.93;35.27
67803;BME280;72185;51.378;-1.342;2024-03-23T05:32:17;100084.24;;;16.34;35.13
67803;BME280;72185;51.378;-1.342;2024-03-23T05:34:44;100079.04;;;16.10;35.24
67803;BME280;72185;51.378;-1.342;2024-03-23T05:37:08;100076.97;;;16.17;35.09
67803;BME280;72185;51.378;-1.342;2024-03-23T05:39:34;100083.20;;;16.48;34.93
67803;BME280;72185;51.378;-1.342;2024-03-23T05:41:59;100085.08;;;16.35;34.85
67803;BME280;72185;51.378;-1.342;2024-03-23T05:44:25;100080.33;;;16.57;34.53
67803;BME280;72185;51.378;-1.342;2024-03-23T05:46:50;100076.87;;;16.59;34.90
67803;BME280;72185;51.378;-1.342;2024-03-23T05:49:16;100077.15;;;16.06;35.15
67803;BME280;72185;51.378;-1.342;2024-03-23T05:51:41;100077.93;;;16.08;35.07
67803;BME280;72185;51.378;-1.342;2024-03-23T05:54:07;100073.83;;;16.56;34.49
67803;BME280;72185;51.378;-1.342;2024-03-23T05:56:33;100072.70;;;16.45;34.85
67803;BME280;72185;51.378;-1.342;2024-03-23T05:58:58;100071.08;;;16.35;34.75
67803;BME280;72185;51.378;-1.342;2024-03-23T06:01:24;100068.50;;;16.76;34.49
67803;BME280;72185;51.378;-1.342;2024-03-23T06:03:49;100067.93;;;16.72;34.29
67803;BME280;72185;51.378;-1.342;2024-03-23T06:06:15;100069.01;;;16.46;34.16
67803;BME280;72185;51.378;-1.342;2024-03-23T06:08:40;100068.52;;;16.46;34.29
67803;BME280;72185;51.378;-1.342;2024-03-23T06:11:06;100070.17;;;16.16;34.67
67803;BME280;72185;51.378;-1.342;2024-03-23T06:13:32;100071.92;;;17.06;34.18
67803;BME280;72185;51.378;-1.342;2024-03-23T06:15:57;100067.65;;;17.02;34.23
67803;BME280;72185;51.378;-1.342;2024-03-23T06:18:23;100068.71;;;16.92;33.89
67803;BME280;72185;51.378;-1.342;2024-03-23T06:20:48;100062.33;;;16.73;33.89
67803;BME280;72185;51.378;-1.342;2024-03-23T06:23:14;100065.14;;;16.57;34.29
67803;BME280;72185;51.378;-1.342;2024-03-23T06:25:39;100061.78;;;16.68;34.20
67803;BME280;72185;51.378;-1.342;2024-03-23T06:28:05;100063.52;;;16.92;33.99
67803;BME280;72185;51.378;-1.342;2024-03-23T06:30:31;100059.76;;;16.70;34.15
67803;BME280;72185;51.378;-1.342;2024-03-23T06:32:56;100054.32;;;16.84;34.04
67803;BME280;72185;51.378;-1.342;2024-03-23T06:35:22;100054.57;;;16.76;33.79
67803;BME280;72185;51.378;-1.342;2024-03-23T06:37:47;100056.62;;;16.72;33.87
67803;BME280;72185;51.378;-1.342;2024-03-23T06:40:13;100061.04;;;16.78;34.08
67803;BME280;72185;51.378;-1.342;2024-03-23T06:42:38;100061.70;;;16.93;33.75
67803;BME280;72185;51.378;-1.342;2024-03-23T06:45:06;100059.70;;;16.57;34.43
67803;BME280;72185;51.378;-1.342;2024-03-23T06:47:30;100059.18;;;16.97;34.14
67803;BME280;72185;51.378;-1.342;2024-03-23T06:49:55;100058.96;;;16.26;34.42
67803;BME280;72185;51.378;-1.342;2024-03-23T06:52:21;100063.20;;;15.71;35.25
67803;BME280;72185;51.378;-1.342;2024-03-23T06:54:46;100062.12;;;15.67;35.42
67803;BME280;72185;51.378;-1.342;2024-03-23T06:57:12;100060.19;;;15.70;35.29
67803;BME280;72185;51.378;-1.342;2024-03-23T06:59:37;100056.75;;;15.55;35.67
67803;BME280;72185;51.378;-1.342;2024-03-23T07:02:03;100059.97;;;15.21;36.14
67803;BME280;72185;51.378;-1.342;2024-03-23T07:04:28;100056.13;;;15.53;35.57
67803;BME280;72185;51.378;-1.342;2024-03-23T07:06:54;100051.88;;;15.50;35.71
67803;BME280;72185;51.378;-1.342;2024-03-23T07:09:20;100053.44;;;15.24;35.99
67803;BME280;72185;51.378;-1.342;2024-03-23T07:11:45;100053.83;;;15.45;35.62
67803;BME280;72185;51.378;-1.342;2024-03-23T07:14:11;100050.07;;;15.52;35.92
67803;BME280;72185;51.378;-1.342;2024-03-23T07:16:36;100047.97;;;15.26;36.04
67803;BME280;72185;51.378;-1.342;2024-03-23T07:19:02;100050.39;;;15.46;35.97
67803;BME280;72185;51.378;-1.342;2024-03-23T07:21:27;100057.43;;;15.46;36.08
67803;BME280;72185;51.378;-1.342;2024-03-23T07:23:53;100051.05;;;15.44;35.91
67803;BME280;72185;51.378;-1.342;2024-03-23T07:26:19;100045.90;;;15.55;35.69
67803;BME280;72185;51.378;-1.342;2024-03-23T07:28:44;100048.49;;;15.92;35.57
67803;BME280;72185;51.378;-1.342;2024-03-23T07:31:11;100038.64;;;15.66;35.50
67803;BME280;72185;51.378;-1.342;2024-03-23T07:33:36;100039.11;;;15.80;35.70
67803;BME280;72185;51.378;-1.342;2024-03-23T07:36:01;100035.31;;;15.28;35.94
67803;BME280;72185;51.378;-1.342;2024-03-23T07:38:27;100031.19;;;15.59;35.85
67803;BME280;72185;51.378;-1.342;2024-03-23T07:40:52;100039.39;;;15.36;36.20
67803;BME280;72185;51.378;-1.342;2024-03-23T07:43:18;100038.76;;;15.32;36.34
67803;BME280;72185;51.378;-1.342;2024-03-23T07:45:43;100040.97;;;15.59;35.92
67803;BME280;72185;51.378;-1.342;2024-03-23T07:48:09;100033.45;;;15.35;35.87
67803;BME280;72185;51.378;-1.342;2024-03-23T07:50:34;100037.78;;;15.42;36.08
67803;BME280;72185;51.378;-1.342;2024-03-23T07:53:00;100028.88;;;15.53;36.03
67803;BME280;72185;51.378;-1.342;2024-03-23T07:55:26;100033.31;;;13.59;36.34
67803;BME280;72185;51.378;-1.342;2024-03-23T07:57:51;100031.10;;;15.50;35.68
67803;BME280;72185;51.378;-1.342;2024-03-23T08:00:17;100031.09;;;15.73;35.74
67803;BME280;72185;51.378;-1.342;2024-03-23T08:02:42;100026.73;;;15.23;35.94
67803;BME280;72185;51.378;-1.342;2024-03-23T08:05:08;100024.94;;;15.60;35.57
67803;BME280;72185;51.378;-1.342;2024-03-23T08:07:33;100031.14;;;15.40;36.08
67803;BME280;72185;51.378;-1.342;2024-03-23T08:09:59;100021.63;;;15.95;35.42
67803;BME280;72185;51.378;-1.342;2024-03-23T08:12:24;100030.13;;;15.41;36.11
67803;BME280;72185;51.378;-1.342;2024-03-23T08:14:50;100022.37;;;15.46;35.66
67803;BME280;72185;51.378;-1.342;2024-03-23T08:17:16;100025.00;;;15.06;35.92
67803;BME280;72185;51.378;-1.342;2024-03-23T08:19:41;100023.18;;;15.74;35.30
67803;BME280;72185;51.378;-1.342;2024-03-23T08:22:07;100023.09;;;15.36;35.85
67803;BME280;72185;51.378;-1.342;2024-03-23T08:24:34;100020.37;;;15.40;36.09
67803;BME280;72185;51.378;-1.342;2024-03-23T08:26:58;100028.27;;;15.21;36.02
67803;BME280;72185;51.378;-1.342;2024-03-23T08:29:23;100023.44;;;15.91;35.61
67803;BME280;72185;51.378;-1.342;2024-03-23T08:31:49;100029.83;;;15.66;35.82
67803;BME280;72185;51.378;-1.342;2024-03-23T08:34:15;100029.55;;;16.59;34.71
67803;BME280;72185;51.378;-1.342;2024-03-23T08:36:40;100014.04;;;16.49;34.86
67803;BME280;72185;51.378;-1.342;2024-03-23T08:39:06;100016.83;;;16.41;34.38
67803;BME280;72185;51.378;-1.342;2024-03-23T08:41:31;100008.43;;;16.75;34.02
67803;BME280;72185;51.378;-1.342;2024-03-23T08:43:57;100010.55;;;17.45;33.26
67803;BME280;72185;51.378;-1.342;2024-03-23T08:46:22;100005.66;;;17.20;33.61
67803;BME280;72185;51.378;-1.342;2024-03-23T08:48:48;100004.02;;;17.91;33.06
67803;BME280;72185;51.378;-1.342;2024-03-23T08:51:15;99999.88;;;17.84;32.82
67803;BME280;72185;51.378;-1.342;2024-03-23T08:53:40;99999.86;;;17.82;32.90
67803;BME280;72185;51.378;-1.342;2024-03-23T08:56:06;99997.48;;;17.98;32.77
67803;BME280;72185;51.378;-1.342;2024-03-23T08:58:31;99995.04;;;17.94;32.63
67803;BME280;72185;51.378;-1.342;2024-03-23T09:01:02;99980.63;;;18.04;32.50
67803;BME280;72185;51.378;-1.342;2024-03-23T09:03:21;99980.30;;;18.13;32.51
67803;BME280;72185;51.378;-1.342;2024-03-23T09:05:47;99981.69;;;18.06;32.56
67803;BME280;72185;51.378;-1.342;2024-03-23T09:08:12;99978.41;;;18.19;32.46
67803;BME280;72185;51.378;-1.342;2024-03-23T09:10:39;99976.13;;;18.29;32.41
67803;BME280;72185;51.378;-1.342;2024-03-23T09:13:04;99977.05;;;18.25;32.22
67803;BME280;72185;51.378;-1.342;2024-03-23T09:15:29;99974.99;;;18.26;32.18
67803;BME280;72185;51.378;-1.342;2024-03-23T09:17:55;99969.73;;;18.53;32.23
67803;BME280;72185;51.378;-1.342;2024-03-23T09:20:20;99964.46;;;18.35;32.18
67803;BME280;72185;51.378;-1.342;2024-03-23T09:22:48;99964.30;;;18.52;32.00
67803;BME280;72185;51.378;-1.342;2024-03-23T09:25:11;99959.53;;;18.49;32.08
67803;BME280;72185;51.378;-1.342;2024-03-23T09:27:37;99952.93;;;18.39;32.08
67803;BME280;72185;51.378;-1.342;2024-03-23T09:30:03;99956.62;;;18.60;32.15
67803;BME280;72185;51.378;-1.342;2024-03-23T09:32:28;99948.35;;;18.76;31.98
67803;BME280;72185;51.378;-1.342;2024-03-23T09:34:53;99949.10;;;18.34;31.94
67803;BME280;72185;51.378;-1.342;2024-03-23T09:37:19;99939.84;;;18.78;31.79
67803;BME280;72185;51.378;-1.342;2024-03-23T09:39:44;99942.44;;;18.89;31.82
67803;BME280;72185;51.378;-1.342;2024-03-23T09:42:10;99934.47;;;18.66;31.79
67803;BME280;72185;51.378;-1.342;2024-03-23T09:44:36;99934.13;;;18.84;31.73
67803;BME280;72185;51.378;-1.342;2024-03-23T09:47:01;99928.10;;;19.07;31.75
67803;BME280;72185;51.378;-1.342;2024-03-23T09:49:27;99918.10;;;19.08;31.71
67803;BME280;72185;51.378;-1.342;2024-03-23T09:51:52;99919.11;;;18.63;31.69
67803;BME280;72185;51.378;-1.342;2024-03-23T09:54:18;99918.10;;;18.72;31.67
67803;BME280;72185;51.378;-1.342;2024-03-23T09:56:43;99913.19;;;18.67;31.52
67803;BME280;72185;51.378;-1.342;2024-03-23T09:59:09;99917.16;;;18.98;31.55
67803;BME280;72185;51.378;-1.342;2024-03-23T10:01:34;99926.24;;;19.18;31.54
67803;BME280;72185;51.378;-1.342;2024-03-23T10:04:00;99920.94;;;19.30;31.49
67803;BME280;72185;51.378;-1.342;2024-03-23T10:06:25;99912.40;;;18.80;31.48
67803;BME280;72185;51.378;-1.342;2024-03-23T10:08:51;99921.82;;;18.82;31.43
67803;BME280;72185;51.378;-1.342;2024-03-23T10:11:17;99918.18;;;18.94;31.33
67803;BME280;72185;51.378;-1.342;2024-03-23T10:13:43;99924.01;;;18.98;31.38
67803;BME280;72185;51.378;-1.342;2024-03-23T10:16:07;99915.14;;;18.92;31.45
67803;BME280;72185;51.378;-1.342;2024-03-23T10:18:37;99912.93;;;19.54;31.27
67803;BME280;72185;51.378;-1.342;2024-03-23T10:21:07;99910.24;;;19.26;31.29
67803;BME280;72185;51.378;-1.342;2024-03-23T10:23:24;99893.33;;;19.04;31.22
67803;BME280;72185;51.378;-1.342;2024-03-23T10:25:49;99896.14;;;19.11;31.14
67803;BME280;72185;51.378;-1.342;2024-03-23T10:28:15;99883.99;;;19.19;31.12
67803;BME280;72185;51.378;-1.342;2024-03-23T10:30:40;99891.91;;;19.17;31.11
67803;BME280;72185;51.378;-1.342;2024-03-23T10:33:08;99885.59;;;19.37;31.05
67803;BME280;72185;51.378;-1.342;2024-03-23T10:35:32;99883.42;;;19.20;31.02
67803;BME280;72185;51.378;-1.342;2024-03-23T10:37:57;99881.80;;;19.45;31.01
67803;BME280;72185;51.378;-1.342;2024-03-23T10:40:23;99875.70;;;19.17;30.95
67803;BME280;72185;51.378;-1.342;2024-03-23T10:42:48;99874.61;;;19.28;30.85
67803;BME280;72185;51.378;-1.342;2024-03-23T10:45:14;99868.06;;;19.15;30.77
67803;BME280;72185;51.378;-1.342;2024-03-23T10:47:39;99865.71;;;19.16;30.89
67803;BME280;72185;51.378;-1.342;2024-03-23T10:50:05;99864.50;;;19.12;30.81
67803;BME280;72185;51.378;-1.342;2024-03-23T10:52:30;99862.95;;;18.99;31.01
67803;BME280;72185;51.378;-1.342;2024-03-23T10:54:56;99854.22;;;18.96;30.99
67803;BME280;72185;51.378;-1.342;2024-03-23T10:57:30;99853.48;;;18.90;31.03
67803;BME280;72185;51.378;-1.342;2024-03-23T10:59:47;99847.14;;;18.87;31.14
67803;BME280;72185;51.378;-1.342;2024-03-23T11:02:18;99844.19;;;18.86;31.12
67803;BME280;72185;51.378;-1.342;2024-03-23T11:04:38;99839.35;;;18.83;31.09
67803;BME280;72185;51.378;-1.342;2024-03-23T11:11:54;99829.61;;;18.82;31.05
67803;BME280;72185;51.378;-1.342;2024-03-23T11:14:22;99834.49;;;18.81;31.15
67803;BME280;72185;51.378;-1.342;2024-03-23T11:16:45;99831.60;;;18.99;31.11
67803;BME280;72185;51.378;-1.342;2024-03-23T11:24:13;99843.17;;;18.97;31.19
67803;BME280;72185;51.378;-1.342;2024-03-23T11:26:27;99836.57;;;18.55;31.32
67803;BME280;72185;51.378;-1.342;2024-03-23T11:31:19;99840.50;;;18.49;31.38
67803;BME280;72185;51.378;-1.342;2024-03-23T11:33:44;99844.66;;;18.99;31.35
67803;BME280;72185;51.378;-1.342;2024-03-23T11:36:10;99836.84;;;18.71;31.39
67803;BME280;72185;51.378;-1.342;2024-03-23T11:38:36;99835.11;;;18.33;31.49
67803;BME280;72185;51.378;-1.342;2024-03-23T11:41:03;99834.70;;;18.83;31.57
67803;BME280;72185;51.378;-1.342;2024-03-23T11:43:26;99828.62;;;18.56;31.53
67803;BME280;72185;51.378;-1.342;2024-03-23T11:45:52;99823.16;;;18.74;31.64
67803;BME280;72185;51.378;-1.342;2024-03-23T11:48:19;99817.21;;;18.62;31.74
67803;BME280;72185;51.378;-1.342;2024-03-23T11:50:44;99810.28;;;18.16;31.74
67803;BME280;72185;51.378;-1.342;2024-03-23T11:53:11;99799.14;;;18.04;31.85
67803;BME280;72185;51.378;-1.342;2024-03-23T11:55:41;99796.22;;;18.10;31.85
67803;BME280;72185;51.378;-1.342;2024-03-23T11:58:00;99790.37;;;18.56;31.88
67803;BME280;72185;51.378;-1.342;2024-03-23T12:00:25;99785.64;;;18.52;31.91
67803;BME280;72185;51.378;-1.342;2024-03-23T12:02:51;99785.39;;;18.03;31.91
67803;BME280;72185;51.378;-1.342;2024-03-23T12:05:17;99784.12;;;18.06;31.99
67803;BME280;72185;51.378;-1.342;2024-03-23T12:07:42;99778.99;;;18.40;32.14
67803;BME280;72185;51.378;-1.342;2024-03-23T12:10:08;99790.67;;;18.28;32.01
67803;BME280;72185;51.378;-1.342;2024-03-23T12:12:33;99800.09;;;18.23;32.04
67803;BME280;72185;51.378;-1.342;2024-03-23T12:15:03;99797.29;;;18.28;32.16
67803;BME280;72185;51.378;-1.342;2024-03-23T12:17:24;99818.97;;;18.20;32.22
67803;BME280;72185;51.378;-1.342;2024-03-23T12:19:49;99824.48;;;17.62;32.30
67803;BME280;72185;51.378;-1.342;2024-03-23T12:22:15;99823.40;;;17.81;32.41
67803;BME280;72185;51.378;-1.342;2024-03-23T12:24:40;99818.52;;;18.28;32.20
67803;BME280;72185;51.378;-1.342;2024-03-23T12:27:06;99817.10;;;17.60;32.40
67803;BME280;72185;51.378;-1.342;2024-03-23T12:29:32;99814.31;;;18.03;32.41
67803;BME280;72185;51.378;-1.342;2024-03-23T12:31:59;99812.04;;;17.94;32.54
67803;BME280;72185;51.378;-1.342;2024-03-23T12:34:23;99800.51;;;17.95;32.38
67803;BME280;72185;51.378;-1.342;2024-03-23T12:36:48;99787.52;;;18.20;32.33
67803;BME280;72185;51.378;-1.342;2024-03-23T12:39:14;99775.90;;;18.07;32.53
67803;BME280;72185;51.378;-1.342;2024-03-23T12:41:39;99777.84;;;17.64;32.41
67803;BME280;72185;51.378;-1.342;2024-03-23T12:44:05;99777.24;;;18.13;32.45
67803;BME280;72185;51.378;-1.342;2024-03-23T12:46:30;99787.06;;;18.12;32.49
67803;BME280;72185;51.378;-1.342;2024-03-23T12:48:56;99789.63;;;18.01;32.56
67803;BME280;72185;51.378;-1.342;2024-03-23T12:51:22;99786.73;;;18.01;32.58
67803;BME280;72185;51.378;-1.342;2024-03-23T12:53:47;99781.80;;;17.98;32.59
67803;BME280;72185;51.378;-1.342;2024-03-23T12:56:13;99780.02;;;18.00;32.59
67803;BME280;72185;51.378;-1.342;2024-03-23T12:58:38;99774.93;;;17.92;32.73
67803;BME280;72185;51.378;-1.342;2024-03-23T13:01:04;99771.12;;;17.72;32.65
67803;BME280;72185;51.378;-1.342;2024-03-23T13:03:29;99776.37;;;17.83;32.77
67803;BME280;72185;51.378;-1.342;2024-03-23T13:05:55;99825.59;;;17.44;32.94
67803;BME280;72185;51.378;-1.342;2024-03-23T13:08:21;99836.09;;;17.35;33.30
67803;BME280;72185;51.378;-1.342;2024-03-23T13:10:46;99842.14;;;17.39;33.32
67803;BME280;72185;51.378;-1.342;2024-03-23T13:13:12;99829.99;;;18.05;32.58
67803;BME280;72185;51.378;-1.342;2024-03-23T13:15:37;99828.97;;;17.68;32.99
67803;BME280;72185;51.378;-1.342;2024-03-23T13:18:03;99826.72;;;17.21;33.23
67803;BME280;72185;51.378;-1.342;2024-03-23T13:20:28;99817.22;;;17.48;33.25
67803;BME280;72185;51.378;-1.342;2024-03-23T13:22:54;99798.37;;;17.44;33.26
67803;BME280;72185;51.378;-1.342;2024-03-23T13:25:19;99801.41;;;17.39;33.31
67803;BME280;72185;51.378;-1.342;2024-03-23T13:27:45;99791.06;;;17.82;33.04
67803;BME280;72185;51.378;-1.342;2024-03-23T13:30:11;99783.29;;;17.84;32.86
67803;BME280;72185;51.378;-1.342;2024-03-23T13:32:36;99773.02;;;17.76;32.62
67803;BME280;72185;51.378;-1.342;2024-03-23T13:35:02;99767.15;;;17.96;32.59
67803;BME280;72185;51.378;-1.342;2024-03-23T13:37:27;99765.45;;;17.88;32.41